Time;durP1;ratioP1;P1;durP2;ratioP2;P2;SDS_P1;SDS_P2;PMS_P1;PMS_P2;Temp;Humidity;BMP_temperature;BMP_pressure;BME280_temperature;BME280_humidity;BME280_pressure;Samples;Min_cycle;Max_cycle;Signal;HPM_P1;HPM_P2
2023/09/15 00:00:17;;;;;;;8.13;4.53;;;16.40;77.50;;;;;;4994856;28;20030;-78
2023/09/15 00:02:44;;;;;;;10.40;4.95;;;16.40;77.70;;;;;;4994772;28;20031;-79
2023/09/15 00:05:12;;;;;;;11.50;4.82;;;16.30;77.80;;;;;;4994541;28;20469;-78
2023/09/15 00:07:38;;;;;;;6.68;4.13;;;16.30;78.00;;;;;;4994767;28;20018;-78
2023/09/15 00:10:06;;;;;;;9.68;5.22;;;16.30;78.30;;;;;;4994388;28;20117;-78
2023/09/15 00:12:32;;;;;;;7.93;4.32;;;16.30;78.50;;;;;;4994493;28;20030;-78
2023/09/15 00:14:57;;;;;;;9.00;4.25;;;16.30;78.50;;;;;;4976997;28;20126;-78
2023/09/15 00:17:25;;;;;;;8.38;4.55;;;16.30;78.60;;;;;;4994116;28;20022;-78
2023/09/15 00:19:51;;;;;;;8.05;4.75;;;16.20;78.60;;;;;;4994440;28;20084;-79
2023/09/15 00:22:16;;;;;;;8.65;4.57;;;16.20;78.80;;;;;;4976934;28;20062;-79
2023/09/15 00:24:42;;;;;;;7.65;4.30;;;16.10;78.80;;;;;;4992739;28;20100;-78
2023/09/15 00:27:09;;;;;;;8.18;4.63;;;16.10;78.90;;;;;;4993322;28;20023;-79
2023/09/15 00:29:35;;;;;;;10.40;4.45;;;16.10;78.90;;;;;;4976433;28;20026;-78
2023/09/15 00:32:01;;;;;;;11.38;4.90;;;16.10;79.00;;;;;;4994112;28;20380;-79
2023/09/15 00:34:26;;;;;;;8.88;4.70;;;16.00;79.10;;;;;;4994048;28;20034;-78
2023/09/15 00:36:52;;;;;;;7.40;4.40;;;16.00;79.20;;;;;;4992734;28;20034;-78
2023/09/15 00:39:18;;;;;;;9.98;4.50;;;15.90;79.30;;;;;;4994086;28;20030;-79
2023/09/15 00:41:43;;;;;;;7.35;3.85;;;15.90;79.50;;;;;;4993943;28;20072;-78
2023/09/15 00:44:09;;;;;;;8.50;3.90;;;15.90;80.20;;;;;;4993690;28;20078;-78
2023/09/15 00:46:35;;;;;;;8.77;4.30;;;15.90;79.70;;;;;;4993552;28;20033;-78
2023/09/15 00:49:01;;;;;;;8.05;4.45;;;15.80;79.80;;;;;;4994135;28;20034;-79
2023/09/15 00:51:27;;;;;;;9.60;4.75;;;15.80;79.90;;;;;;4993798;28;20457;-79
2023/09/15 00:53:55;;;;;;;9.27;4.40;;;15.80;80.00;;;;;;4994208;28;20034;-79
2023/09/15 00:56:21;;;;;;;10.93;4.82;;;15.80;80.20;;;;;;4993498;28;20508;-79
2023/09/15 00:58:46;;;;;;;8.27;4.07;;;15.70;80.40;;;;;;4994578;28;20030;-79
2023/09/15 01:01:13;;;;;;;12.88;4.90;;;15.70;80.50;;;;;;4994687;28;20037;-79
2023/09/15 01:03:42;;;;;;;9.10;4.68;;;15.70;80.70;;;;;;4994067;28;20065;-79
2023/09/15 01:06:12;;;;;;;8.27;3.75;;;15.60;80.80;;;;;;4976430;28;20027;-79
2023/09/15 01:08:38;;;;;;;8.55;4.57;;;15.60;81.00;;;;;;4994106;28;20029;-79
2023/09/15 01:11:04;;;;;;;8.85;3.75;;;15.60;81.10;;;;;;4994109;28;20022;-79
2023/09/15 01:13:34;;;;;;;7.40;3.92;;;15.60;81.20;;;;;;4993736;28;20038;-79
2023/09/15 01:16:21;;;;;;;9.40;4.30;;;15.50;81.30;;;;;;4982292;28;20114;-79
2023/09/15 01:19:06;;;;;;;7.15;4.10;;;15.50;81.50;;;;;;5003010;28;20033;-78
2023/09/15 01:21:50;;;;;;;7.82;3.97;;;15.50;81.60;;;;;;5002279;28;20045;-79
2023/09/15 01:24:38;;;;;;;15.90;4.63;;;15.40;81.70;;;;;;5003217;28;20115;-78
2023/09/15 01:27:22;;;;;;;9.52;4.47;;;15.40;81.70;;;;;;5003007;28;20077;-79
2023/09/15 01:29:56;;;;;;;6.82;3.58;;;15.20;81.70;;;;;;5004193;28;20050;-77
2023/09/15 01:32:22;;;;;;;7.63;3.88;;;15.30;81.90;;;;;;4994464;28;20384;-77
2023/09/15 01:34:50;;;;;;;8.18;4.20;;;15.30;82.00;;;;;;4994869;28;20026;-78
2023/09/15 01:37:16;;;;;;;10.43;4.45;;;15.30;82.10;;;;;;4995324;28;20030;-78
2023/09/15 01:39:42;;;;;;;8.80;3.80;;;15.30;82.30;;;;;;4999902;28;20062;-78
2023/09/15 01:42:08;;;;;;;6.18;3.63;;;15.20;82.40;;;;;;4999962;28;20035;-78
2023/09/15 01:44:33;;;;;;;7.18;3.60;;;15.20;82.60;;;;;;4999794;28;20069;-78
2023/09/15 01:46:59;;;;;;;6.65;3.75;;;15.20;82.70;;;;;;5000204;28;20034;-78
2023/09/15 01:49:27;;;;;;;7.93;4.15;;;15.20;82.80;;;;;;5000233;28;20023;-78
2023/09/15 01:51:54;;;;;;;9.15;4.90;;;15.10;82.80;;;;;;4982628;28;20018;-83
2023/09/15 01:54:20;;;;;;;9.30;4.53;;;15.10;83.00;;;;;;5000061;28;20057;-84
2023/09/15 01:56:48;;;;;;;7.80;4.38;;;15.10;83.00;;;;;;4999838;28;20031;-83
2023/09/15 01:59:13;;;;;;;10.32;4.07;;;15.00;83.00;;;;;;4999905;28;20274;-83
2023/09/15 02:01:39;;;;;;;9.38;4.35;;;15.00;83.10;;;;;;4999876;28;20408;-83
2023/09/15 02:04:04;;;;;;;9.73;5.35;;;15.00;83.20;;;;;;4999836;28;20128;-84
2023/09/15 02:06:30;;;;;;;8.98;4.00;;;15.00;83.30;;;;;;5000150;28;20414;-84
2023/09/15 02:08:56;;;;;;;7.78;4.55;;;15.00;83.50;;;;;;5000544;28;20026;-84
2023/09/15 02:11:22;;;;;;;8.60;4.85;;;14.90;83.60;;;;;;5000285;28;20373;-84
2023/09/15 02:13:48;;;;;;;9.40;4.10;;;14.90;83.60;;;;;;5000084;28;20034;-84
2023/09/15 02:16:14;;;;;;;8.43;4.53;;;14.80;83.80;;;;;;4999810;28;20026;-83
2023/09/15 02:18:40;;;;;;;8.68;4.82;;;14.80;84.00;;;;;;4999926;28;20034;-84
2023/09/15 02:21:06;;;;;;;7.93;4.10;;;14.80;84.00;;;;;;5000034;28;20065;-83
2023/09/15 02:23:32;;;;;;;9.10;3.97;;;14.80;84.10;;;;;;4982123;28;20065;-84
2023/09/15 02:26:02;;;;;;;7.97;4.50;;;14.70;84.30;;;;;;4999863;28;20490;-84
2023/09/15 02:28:28;;;;;;;10.73;4.85;;;14.70;84.50;;;;;;4999759;28;20045;-83
2023/09/15 02:30:55;;;;;;;8.55;4.47;;;14.70;84.50;;;;;;4998638;28;20378;-82
2023/09/15 02:33:22;;;;;;;8.95;4.20;;;14.70;84.60;;;;;;4999444;28;20034;-84
2023/09/15 02:35:48;;;;;;;7.82;3.85;;;14.70;84.80;;;;;;4999823;28;20026;-84
2023/09/15 02:38:14;;;;;;;8.68;4.88;;;14.60;84.90;;;;;;4999595;28;20433;-81
2023/09/15 02:40:39;;;;;;;8.60;4.45;;;14.60;85.00;;;;;;5000028;28;20117;-83
2023/09/15 02:43:05;;;;;;;9.38;4.85;;;14.60;85.10;;;;;;5000051;28;20104;-83
2023/09/15 02:45:35;;;;;;;9.27;4.75;;;14.60;85.20;;;;;;4982171;28;20122;-85
2023/09/15 02:48:00;;;;;;;7.93;4.13;;;14.50;85.30;;;;;;4999056;28;20026;-85
2023/09/15 02:50:26;;;;;;;9.10;4.20;;;14.50;85.40;;;;;;4995608;28;20411;-85
2023/09/15 02:52:51;;;;;;;9.23;4.60;;;14.50;85.60;;;;;;4996310;28;20039;-85
2023/09/15 02:55:17;;;;;;;8.07;4.68;;;14.50;85.80;;;;;;4996411;28;20023;-83
2023/09/15 02:57:43;;;;;;;8.68;4.47;;;14.40;85.80;;;;;;4996354;28;20031;-83
2023/09/15 03:00:13;;;;;;;9.82;5.30;;;14.40;85.90;;;;;;4996199;28;20026;-85
2023/09/15 03:02:43;;;;;;;7.72;4.10;;;14.40;86.10;;;;;;4978767;28;20035;-84
2023/09/15 03:05:09;;;;;;;7.70;4.53;;;14.40;86.30;;;;;;4996192;28;20065;-83
2023/09/15 03:07:39;;;;;;;7.38;4.55;;;14.40;86.40;;;;;;4978694;28;20026;-82
2023/09/15 03:10:06;;;;;;;7.47;4.75;;;14.30;86.50;;;;;;4996109;28;20026;-81
2023/09/15 03:12:32;;;;;;;8.68;4.57;;;14.30;86.60;;;;;;4995815;28;20030;-82
2023/09/15 03:14:58;;;;;;;6.53;4.07;;;14.30;86.70;;;;;;4995721;28;20547;-84
2023/09/15 03:17:23;;;;;;;9.52;4.47;;;14.30;86.90;;;;;;4995776;28;20377;-84
2023/09/15 03:19:49;;;;;;;8.63;4.68;;;14.30;86.90;;;;;;4995943;28;20034;-84
2023/09/15 03:22:15;;;;;;;10.60;4.88;;;14.20;87.00;;;;;;4990802;28;20122;-85
2023/09/15 03:24:42;;;;;;;7.95;4.35;;;14.20;87.10;;;;;;4982382;28;20404;-85
2023/09/15 03:27:08;;;;;;;13.27;5.28;;;14.20;87.30;;;;;;4994775;28;20027;-84
2023/09/15 03:29:34;;;;;;;8.75;4.75;;;14.10;87.20;;;;;;4994343;28;20026;-83
2023/09/15 03:32:00;;;;;;;9.27;4.90;;;14.10;87.40;;;;;;4977614;28;20491;-85
2023/09/15 03:34:25;;;;;;;9.27;4.68;;;14.10;87.50;;;;;;4995471;28;20038;-84
2023/09/15 03:36:51;;;;;;;7.50;4.35;;;14.00;87.60;;;;;;4995333;28;20026;-85
2023/09/15 03:39:17;;;;;;;8.65;4.40;;;14.00;87.70;;;;;;4994814;28;20453;-85
2023/09/15 03:41:43;;;;;;;9.70;4.90;;;14.00;87.80;;;;;;4995262;28;20033;-85
2023/09/15 03:44:08;;;;;;;8.02;4.50;;;14.00;88.00;;;;;;4995168;28;20072;-79
2023/09/15 03:46:34;;;;;;;8.40;4.60;;;14.00;88.10;;;;;;4995508;28;20515;-84
2023/09/15 03:49:01;;;;;;;8.43;4.80;;;13.90;88.20;;;;;;4994649;28;20027;-83
2023/09/15 03:51:26;;;;;;;8.15;5.28;;;13.90;88.30;;;;;;4994724;28;20109;-85
2023/09/15 03:53:52;;;;;;;7.88;4.75;;;13.90;88.40;;;;;;4994590;28;20073;-85
2023/09/15 03:56:18;;;;;;;8.50;5.22;;;13.90;88.60;;;;;;4977534;28;20027;-83
2023/09/15 03:58:43;;;;;;;7.57;4.57;;;13.90;88.70;;;;;;4995039;28;20030;-84
2023/09/15 04:01:09;;;;;;;7.50;4.68;;;13.90;88.90;;;;;;4994233;28;20031;-84
2023/09/15 04:03:35;;;;;;;10.10;5.10;;;13.80;88.90;;;;;;4994630;28;20069;-84
2023/09/15 04:06:01;;;;;;;12.00;4.93;;;13.80;89.00;;;;;;4995053;28;20026;-84
2023/09/15 04:08:28;;;;;;;11.98;4.65;;;13.80;89.10;;;;;;4994612;28;20507;-84
2023/09/15 04:10:53;;;;;;;9.45;4.85;;;13.80;89.30;;;;;;4994404;28;20026;-84
2023/09/15 04:13:19;;;;;;;7.95;4.28;;;13.80;89.40;;;;;;4994378;28;20488;-83
2023/09/15 04:15:44;;;;;;;12.88;4.32;;;13.70;89.50;;;;;;4994729;28;20053;-84
2023/09/15 04:18:10;;;;;;;9.15;4.45;;;13.70;89.60;;;;;;4994731;28;20026;-81
2023/09/15 04:20:37;;;;;;;8.55;4.60;;;13.70;89.70;;;;;;4994599;28;20058;-83
2023/09/15 04:23:03;;;;;;;10.50;4.55;;;13.70;89.70;;;;;;4994300;28;20057;-84
2023/09/15 04:25:28;;;;;;;9.82;4.45;;;13.70;89.90;;;;;;4976720;28;20480;-83
2023/09/15 04:27:55;;;;;;;7.65;4.72;;;13.60;89.90;;;;;;4994325;28;20142;-83
2023/09/15 04:30:21;;;;;;;12.15;4.95;;;13.60;90.00;;;;;;4994552;28;20110;-83
2023/09/15 04:32:46;;;;;;;8.10;4.68;;;13.60;90.00;;;;;;4994260;28;20022;-82
2023/09/15 04:35:12;;;;;;;9.23;4.47;;;13.60;90.00;;;;;;4994144;28;20042;-83
2023/09/15 04:37:38;;;;;;;9.30;4.68;;;13.60;90.10;;;;;;4993409;28;20042;-83
2023/09/15 04:40:06;;;;;;;6.53;4.05;;;13.60;90.10;;;;;;4998214;28;20098;-82
2023/09/15 04:42:33;;;;;;;8.60;4.07;;;13.60;90.20;;;;;;4994020;28;20022;-83
2023/09/15 04:45:00;;;;;;;8.85;4.88;;;13.50;90.30;;;;;;4994434;28;20077;-83
2023/09/15 04:47:35;;;;;;;8.90;4.18;;;13.50;90.30;;;;;;4993653;28;20460;-83
2023/09/15 04:50:01;;;;;;;7.72;4.15;;;13.50;90.40;;;;;;4994089;28;20109;-83
2023/09/15 04:52:27;;;;;;;8.93;4.05;;;13.50;90.40;;;;;;4993948;28;20105;-84
2023/09/15 04:54:53;;;;;;;13.13;5.18;;;13.40;90.40;;;;;;4993789;28;20018;-84
2023/09/15 04:57:20;;;;;;;9.20;4.10;;;13.40;90.50;;;;;;4976379;28;20029;-83
2023/09/15 04:59:46;;;;;;;10.98;5.28;;;13.40;90.50;;;;;;4993880;28;20105;-84
2023/09/15 05:02:13;;;;;;;9.68;4.38;;;13.40;90.60;;;;;;4993850;28;20027;-84
2023/09/15 05:04:39;;;;;;;10.95;4.88;;;13.30;90.60;;;;;;4975936;28;20129;-83
2023/09/15 05:07:05;;;;;;;6.82;4.18;;;13.30;90.70;;;;;;4975527;28;20415;-84
2023/09/15 05:09:31;;;;;;;9.18;4.18;;;13.30;90.70;;;;;;4993310;28;20034;-84
2023/09/15 05:11:57;;;;;;;8.40;4.70;;;13.30;90.80;;;;;;4992814;28;20019;-85
2023/09/15 05:14:22;;;;;;;8.82;4.18;;;13.30;90.80;;;;;;4993648;28;20045;-84
2023/09/15 05:16:48;;;;;;;9.38;4.78;;;13.30;90.90;;;;;;4976268;28;20061;-85
2023/09/15 05:19:14;;;;;;;7.03;4.18;;;13.20;90.90;;;;;;4993644;28;20100;-84
2023/09/15 05:21:40;;;;;;;9.63;4.93;;;13.20;90.90;;;;;;4993533;28;20041;-84
2023/09/15 05:24:06;;;;;;;10.00;4.68;;;13.20;91.00;;;;;;4993064;28;20069;-83
2023/09/15 05:26:31;;;;;;;12.52;4.95;;;13.20;91.10;;;;;;4993357;28;20460;-85
2023/09/15 05:28:57;;;;;;;9.63;5.15;;;13.20;91.10;;;;;;4993202;28;20033;-82
2023/09/15 05:31:25;;;;;;;10.05;4.57;;;13.20;91.20;;;;;;4976067;28;20041;-82
2023/09/15 05:33:55;;;;;;;8.73;4.50;;;13.20;91.20;;;;;;4993249;28;20022;-82
2023/09/15 05:36:21;;;;;;;9.57;4.13;;;13.20;91.30;;;;;;4993201;28;20038;-82
2023/09/15 05:38:48;;;;;;;8.13;4.60;;;13.20;91.40;;;;;;4993263;28;20041;-82
2023/09/15 05:41:14;;;;;;;9.60;4.22;;;13.20;91.40;;;;;;4993197;28;20053;-82
2023/09/15 05:43:40;;;;;;;11.65;5.07;;;13.20;91.50;;;;;;4993261;28;20026;-82
2023/09/15 05:46:06;;;;;;;8.75;4.78;;;13.30;91.60;;;;;;4993472;28;20085;-82
2023/09/15 05:48:31;;;;;;;7.57;4.22;;;13.20;91.60;;;;;;4993076;28;20452;-82
2023/09/15 05:50:57;;;;;;;9.70;4.53;;;13.30;91.70;;;;;;4976145;28;20049;-83
2023/09/15 05:53:22;;;;;;;11.15;5.20;;;13.20;91.70;;;;;;4976060;28;20045;-82
2023/09/15 05:55:48;;;;;;;11.73;5.63;;;13.30;91.80;;;;;;4993382;28;20436;-82
2023/09/15 05:58:14;;;;;;;12.20;5.47;;;13.30;91.90;;;;;;4993117;28;20031;-82
2023/09/15 06:00:41;;;;;;;9.95;5.40;;;13.30;91.90;;;;;;4992694;28;20089;-83
2023/09/15 06:03:08;;;;;;;11.65;5.25;;;13.30;92.00;;;;;;4992960;28;20095;-81
2023/09/15 06:05:33;;;;;;;9.95;5.15;;;13.30;92.10;;;;;;4976114;28;20027;-82
2023/09/15 06:07:59;;;;;;;10.05;5.05;;;13.30;92.20;;;;;;4993137;28;20491;-82
2023/09/15 06:10:25;;;;;;;9.65;4.85;;;13.40;92.20;;;;;;4993120;28;20026;-82
2023/09/15 06:12:51;;;;;;;8.90;5.13;;;13.40;92.20;;;;;;4993218;28;20022;-81
2023/09/15 06:15:18;;;;;;;13.50;4.70;;;13.40;92.30;;;;;;4993294;28;20134;-82
2023/09/15 06:17:44;;;;;;;12.13;5.25;;;13.40;92.30;;;;;;4993066;28;20033;-82
2023/09/15 06:20:09;;;;;;;9.80;4.93;;;13.50;92.40;;;;;;4993043;28;20035;-82
2023/09/15 06:22:35;;;;;;;10.35;5.43;;;13.50;92.40;;;;;;4993088;28;20030;-82
2023/09/15 06:25:01;;;;;;;9.32;5.07;;;13.50;92.50;;;;;;4994991;28;20097;-82
2023/09/15 06:27:27;;;;;;;9.07;5.30;;;13.60;92.60;;;;;;4996398;28;20058;-82
2023/09/15 06:29:53;;;;;;;10.23;5.95;;;13.60;92.60;;;;;;4996103;28;20065;-83
2023/09/15 06:32:18;;;;;;;9.13;4.95;;;13.70;92.70;;;;;;4978892;28;20054;-82
2023/09/15 06:34:44;;;;;;;8.45;5.13;;;13.70;92.70;;;;;;4978975;28;20089;-82
2023/09/15 06:37:10;;;;;;;9.90;5.63;;;13.70;92.70;;;;;;4978947;28;20132;-82
2023/09/15 06:39:36;;;;;;;10.23;5.07;;;13.70;92.80;;;;;;4996114;28;20034;-82
2023/09/15 06:42:08;;;;;;;11.75;5.80;;;13.80;92.80;;;;;;4979032;28;20038;-83
2023/09/15 06:44:34;;;;;;;10.80;5.63;;;13.80;92.80;;;;;;4978491;28;20026;-82
2023/09/15 06:47:00;;;;;;;9.05;4.82;;;13.90;92.80;;;;;;4996224;28;20034;-82
2023/09/15 06:49:26;;;;;;;9.65;4.93;;;13.90;92.90;;;;;;4997317;28;20072;-82
2023/09/15 06:51:53;;;;;;;8.88;4.10;;;13.90;92.90;;;;;;4996562;28;20018;-83
2023/09/15 06:54:19;;;;;;;8.95;5.05;;;14.00;92.90;;;;;;4997764;28;20042;-83
2023/09/15 06:56:44;;;;;;;13.38;5.53;;;14.00;92.90;;;;;;5007542;28;20030;-82
2023/09/15 06:59:10;;;;;;;11.40;5.32;;;14.00;92.90;;;;;;4999991;28;20113;-82
2023/09/15 07:01:35;;;;;;;10.13;5.13;;;14.10;93.00;;;;;;4997205;28;20108;-82
2023/09/15 07:04:01;;;;;;;10.63;5.00;;;14.30;93.10;;;;;;4998208;28;20052;-82
2023/09/15 07:06:27;;;;;;;13.82;5.30;;;14.20;93.00;;;;;;4999226;28;20101;-81
2023/09/15 07:08:52;;;;;;;20.92;5.70;;;14.40;93.10;;;;;;4981795;28;20050;-81
2023/09/15 07:11:18;;;;;;;12.18;4.75;;;14.30;93.00;;;;;;4999597;28;20061;-81
2023/09/15 07:13:43;;;;;;;10.10;4.55;;;14.30;93.30;;;;;;5001747;28;20030;-81
2023/09/15 07:16:09;;;;;;;8.93;4.32;;;14.40;93.00;;;;;;4982990;28;20089;-81
2023/09/15 07:18:35;;;;;;;13.02;4.97;;;14.40;93.00;;;;;;5001192;28;20373;-82
2023/09/15 07:21:01;;;;;;;14.85;5.28;;;14.40;92.90;;;;;;5000318;28;20473;-81
2023/09/15 07:23:26;;;;;;;11.23;4.40;;;14.50;92.90;;;;;;4982875;28;20046;-81
2023/09/15 07:25:52;;;;;;;7.90;4.07;;;14.60;93.20;;;;;;4999114;28;20026;-80
2023/09/15 07:28:17;;;;;;;8.23;3.80;;;14.60;92.80;;;;;;4998808;28;20101;-80
2023/09/15 07:30:43;;;;;;;8.45;4.43;;;14.60;92.70;;;;;;5000290;28;20042;-81
2023/09/15 07:33:09;;;;;;;11.48;4.60;;;14.70;92.70;;;;;;5000320;28;20098;-81
2023/09/15 07:35:36;;;;;;;8.63;3.78;;;14.70;92.60;;;;;;4999095;28;20433;-81
2023/09/15 07:38:02;;;;;;;13.55;4.70;;;14.80;92.60;;;;;;4999029;28;20037;-81
2023/09/15 07:40:28;;;;;;;9.88;3.50;;;14.90;92.60;;;;;;4998410;28;20041;-82
2023/09/15 07:42:54;;;;;;;11.25;4.22;;;14.90;92.50;;;;;;4996888;28;20560;-81
2023/09/15 07:45:19;;;;;;;12.77;4.47;;;15.00;92.40;;;;;;4998933;28;20030;-81
2023/09/15 07:47:46;;;;;;;8.77;4.05;;;15.00;92.40;;;;;;4998368;28;20041;-80
2023/09/15 07:50:13;;;;;;;8.45;3.65;;;15.00;92.30;;;;;;4998712;28;20034;-82
2023/09/15 07:52:39;;;;;;;9.45;3.97;;;15.10;92.30;;;;;;5000220;28;20121;-82
2023/09/15 07:55:05;;;;;;;11.55;4.20;;;15.20;92.20;;;;;;4982833;28;20073;-81
2023/09/15 07:57:32;;;;;;;8.18;3.60;;;15.20;92.10;;;;;;4998868;28;20472;-82
2023/09/15 07:59:59;;;;;;;7.05;3.58;;;15.30;92.00;;;;;;4997945;28;20034;-81
2023/09/15 08:02:26;;;;;;;8.45;3.30;;;15.40;91.90;;;;;;4997680;28;20392;-80
2023/09/15 08:04:53;;;;;;;8.32;3.33;;;15.50;91.80;;;;;;4996198;28;20042;-81
2023/09/15 08:07:18;;;;;;;9.35;3.42;;;15.50;91.70;;;;;;4994858;28;20109;-82
2023/09/15 08:09:44;;;;;;;9.38;3.22;;;15.60;91.60;;;;;;4995980;28;20058;-82
2023/09/15 08:12:10;;;;;;;11.57;3.72;;;15.60;91.50;;;;;;4996071;28;20130;-82
2023/09/15 08:14:36;;;;;;;7.05;2.88;;;15.70;91.40;;;;;;4996785;28;20114;-79
2023/09/15 08:17:02;;;;;;;10.98;3.40;;;15.80;91.40;;;;;;4995279;28;20497;-83
2023/09/15 08:19:28;;;;;;;6.68;2.53;;;15.80;91.30;;;;;;4995753;28;20062;-82
2023/09/15 08:21:53;;;;;;;9.13;3.08;;;15.80;91.20;;;;;;4979258;28;20081;-84
2023/09/15 08:24:20;;;;;;;9.65;3.20;;;16.00;91.10;;;;;;4976635;28;20055;-83
2023/09/15 08:26:46;;;;;;;6.70;3.00;;;16.10;91.10;;;;;;4976922;28;20023;-83
2023/09/15 08:29:12;;;;;;;7.80;3.05;;;16.20;91.00;;;;;;4978018;28;20042;-83
2023/09/15 08:31:38;;;;;;;6.38;2.65;;;16.10;91.00;;;;;;4991023;28;20421;-84
2023/09/15 08:34:03;;;;;;;5.90;2.40;;;16.10;90.90;;;;;;4989670;28;20090;-83
2023/09/15 08:36:29;;;;;;;6.78;2.70;;;16.30;90.90;;;;;;4990258;28;20026;-83
2023/09/15 08:38:55;;;;;;;6.63;2.97;;;16.40;90.80;;;;;;4991322;28;20098;-84
2023/09/15 08:41:28;;;;;;;9.68;3.40;;;16.40;90.70;;;;;;4988842;28;20054;-79
2023/09/15 08:43:55;;;;;;;8.50;3.33;;;16.50;90.70;;;;;;4987755;28;20038;-83
2023/09/15 08:46:22;;;;;;;6.80;2.90;;;16.60;90.60;;;;;;4983727;28;20035;-82
2023/09/15 08:48:52;;;;;;;7.93;3.42;;;16.70;90.60;;;;;;4972831;28;20162;-82
2023/09/15 08:51:18;;;;;;;7.30;3.58;;;16.70;90.50;;;;;;4974796;28;20518;-84
2023/09/15 08:53:45;;;;;;;9.20;3.10;;;16.80;90.50;;;;;;4973864;28;20115;-82
2023/09/15 08:56:11;;;;;;;9.35;3.40;;;16.80;90.30;;;;;;4973989;28;20030;-82
2023/09/15 08:58:37;;;;;;;13.98;3.30;;;17.00;90.30;;;;;;4972437;28;20027;-83
2023/09/15 09:01:07;;;;;;;9.73;3.72;;;17.10;90.30;;;;;;4973567;28;20069;-82
2023/09/15 09:03:38;;;;;;;9.27;3.10;;;17.20;90.30;;;;;;4973376;28;20129;-82
2023/09/15 09:06:09;;;;;;;7.35;2.97;;;17.30;90.20;;;;;;4987408;28;20361;-82
2023/09/15 09:08:35;;;;;;;9.30;3.50;;;17.40;90.10;;;;;;4971658;28;20469;-82
2023/09/15 09:11:01;;;;;;;7.53;2.97;;;17.50;90.00;;;;;;4972727;28;20376;-83
2023/09/15 09:13:27;;;;;;;10.48;3.25;;;17.60;89.60;;;;;;4972747;28;20126;-82
2023/09/15 09:15:52;;;;;;;5.97;3.00;;;17.60;89.30;;;;;;4973592;28;20045;-82
2023/09/15 09:18:18;;;;;;;9.35;2.85;;;17.70;89.10;;;;;;4973443;28;20113;-83
2023/09/15 09:20:49;;;;;;;5.95;2.53;;;17.80;89.00;;;;;;4972390;28;20408;-83
2023/09/15 09:23:16;;;;;;;7.03;3.30;;;17.90;88.80;;;;;;4975760;28;20046;-83
2023/09/15 09:25:41;;;;;;;7.75;2.90;;;18.00;88.60;;;;;;4991634;28;20480;-82
2023/09/15 09:28:07;;;;;;;9.88;2.83;;;18.10;88.30;;;;;;4992145;28;20030;-79
2023/09/15 09:30:33;;;;;;;8.93;2.75;;;18.20;87.90;;;;;;4992467;28;20030;-77
2023/09/15 09:32:59;;;;;;;6.15;2.50;;;18.20;87.60;;;;;;4992270;28;20400;-81
2023/09/15 09:35:25;;;;;;;7.35;3.13;;;18.30;87.30;;;;;;4992698;28;20050;-82
2023/09/15 09:37:53;;;;;;;8.40;2.90;;;18.40;87.00;;;;;;4992047;28;20499;-82
2023/09/15 09:40:21;;;;;;;5.85;2.88;;;18.50;86.80;;;;;;4992445;28;20414;-82
2023/09/15 09:42:48;;;;;;;7.53;3.22;;;18.50;86.80;;;;;;4993047;28;20027;-82
2023/09/15 09:45:14;;;;;;;7.40;2.80;;;18.60;86.20;;;;;;4993149;28;20038;-82
2023/09/15 09:47:40;;;;;;;8.43;2.88;;;18.60;85.80;;;;;;4976080;28;20037;-78
2023/09/15 09:50:09;;;;;;;7.03;2.80;;;18.70;85.70;;;;;;4992948;28;20026;-79
2023/09/15 09:52:35;;;;;;;6.15;2.85;;;18.80;85.50;;;;;;4992865;28;20034;-78
2023/09/15 09:55:04;;;;;;;6.93;2.65;;;18.90;85.00;;;;;;4993382;28;20054;-79
2023/09/15 09:57:30;;;;;;;6.60;2.42;;;18.90;84.50;;;;;;4975636;28;20031;-78
2023/09/15 09:59:56;;;;;;;7.95;2.80;;;19.20;84.10;;;;;;4978854;28;20065;-77
2023/09/15 10:02:22;;;;;;;7.10;2.80;;;19.40;83.90;;;;;;4996531;28;20117;-80
2023/09/15 10:04:47;;;;;;;7.55;2.50;;;19.70;83.40;;;;;;4995814;28;20608;-80
2023/09/15 10:07:13;;;;;;;6.90;2.50;;;20.00;82.40;;;;;;4996286;28;20026;-78
2023/09/15 10:09:40;;;;;;;4.53;1.95;;;20.50;81.90;;;;;;4996310;28;20392;-79
2023/09/15 10:12:06;;;;;;;6.30;2.08;;;21.00;81.80;;;;;;4995806;28;20022;-78
2023/09/15 10:14:31;;;;;;;7.30;2.00;;;21.60;81.80;;;;;;4995650;28;20548;-80
2023/09/15 10:16:58;;;;;;;4.25;1.60;;;22.30;81.40;;;;;;4995449;28;20505;-82
2023/09/15 10:19:25;;;;;;;4.97;1.58;;;23.00;78.50;;;;;;4977950;28;20026;-83
2023/09/15 10:21:51;;;;;;;5.28;1.70;;;23.90;77.50;;;;;;4996488;28;20026;-85
2023/09/15 10:24:17;;;;;;;6.00;1.80;;;24.60;75.00;;;;;;4996954;28;20046;-82
2023/09/15 10:26:43;;;;;;;4.68;1.67;;;24.90;73.60;;;;;;4996596;28;20531;-84
2023/09/15 10:29:13;;;;;;;3.05;1.17;;;25.00;71.80;;;;;;4996826;28;20069;-83
2023/09/15 10:31:45;;;;;;;4.30;1.55;;;25.10;69.80;;;;;;4997456;28;20027;-84
2023/09/15 10:34:11;;;;;;;4.40;1.60;;;25.20;68.30;;;;;;4976746;28;20136;-83
2023/09/15 10:36:39;;;;;;;3.42;1.50;;;25.20;67.40;;;;;;4995477;28;20053;-82
2023/09/15 10:39:15;;;;;;;4.20;1.42;;;25.20;66.20;;;;;;4986414;28;20034;-82
2023/09/15 10:41:41;;;;;;;4.70;1.70;;;25.30;65.10;;;;;;4995239;28;20389;-84
2023/09/15 10:44:07;;;;;;;6.18;1.60;;;25.30;64.40;;;;;;4994479;28;20053;-82
2023/09/15 10:46:40;;;;;;;3.50;1.42;;;25.40;63.80;;;;;;4996079;28;20026;-85
2023/09/15 10:49:16;;;;;;;3.70;1.57;;;25.40;63.10;;;;;;4977159;28;20416;-82
2023/09/15 10:52:01;;;;;;;4.25;1.75;;;25.50;62.50;;;;;;4996193;28;20053;-85
2023/09/15 10:54:32;;;;;;;4.13;1.55;;;25.60;61.80;;;;;;4995339;28;20022;-84
2023/09/15 10:56:58;;;;;;;4.13;1.45;;;25.60;61.70;;;;;;4993734;28;20080;-85
2023/09/15 10:59:25;;;;;;;4.53;1.95;;;25.70;61.30;;;;;;4996033;28;20073;-84
2023/09/15 11:01:51;;;;;;;3.63;1.80;;;25.80;61.40;;;;;;4995508;28;20456;-84
2023/09/15 11:04:22;;;;;;;4.78;1.63;;;25.90;60.30;;;;;;4995394;28;20073;-83
2023/09/15 11:06:51;;;;;;;5.68;1.33;;;26.00;59.70;;;;;;4992941;28;20019;-84
2023/09/15 11:09:17;;;;;;;5.30;1.80;;;26.10;59.50;;;;;;4993809;28;20041;-85
2023/09/15 11:11:50;;;;;;;4.00;1.30;;;26.20;59.20;;;;;;4994451;28;20037;-85
2023/09/15 11:14:17;;;;;;;4.32;1.25;;;26.30;59.00;;;;;;4996146;28;20116;-84
2023/09/15 11:16:51;;;;;;;4.80;1.80;;;26.40;58.90;;;;;;4994215;28;20030;-86
2023/09/15 11:19:18;;;;;;;4.47;1.73;;;26.60;58.70;;;;;;4993940;28;20030;-85
2023/09/15 11:21:45;;;;;;;3.53;1.30;;;26.70;58.40;;;;;;4994699;28;20131;-83
2023/09/15 11:24:11;;;;;;;3.65;1.65;;;26.90;58.10;;;;;;4986273;28;20073;-84
2023/09/15 11:26:45;;;;;;;7.15;2.45;;;27.00;57.80;;;;;;4974520;28;20030;-84
2023/09/15 11:29:11;;;;;;;3.03;1.40;;;27.10;57.20;;;;;;4973923;28;20122;-83
2023/09/15 11:31:37;;;;;;;5.57;1.90;;;27.20;57.10;;;;;;4974524;28;20102;-83
2023/09/15 11:34:05;;;;;;;6.28;1.85;;;27.30;56.70;;;;;;4978299;28;20053;-87
2023/09/15 11:36:35;;;;;;;4.38;1.83;;;27.50;56.40;;;;;;4976678;28;20018;-85
2023/09/15 11:39:04;;;;;;;7.68;2.00;;;27.60;56.00;;;;;;4995239;28;20121;-85
2023/09/15 11:41:33;;;;;;;4.63;1.83;;;27.70;55.70;;;;;;4994833;28;20310;-84
2023/09/15 11:43:59;;;;;;;5.38;1.52;;;27.90;55.40;;;;;;4976780;28;20038;-85
2023/09/15 11:46:25;;;;;;;3.53;1.58;;;28.10;55.30;;;;;;4977077;28;20453;-85
2023/09/15 11:48:52;;;;;;;4.57;2.08;;;28.20;55.00;;;;;;4977245;28;20130;-84
2023/09/15 11:51:18;;;;;;;5.22;1.83;;;28.30;54.70;;;;;;4977743;28;20392;-85
2023/09/15 11:53:47;;;;;;;4.97;1.60;;;28.50;54.50;;;;;;4977049;28;20039;-85
2023/09/15 11:56:20;;;;;;;3.50;1.10;;;28.60;54.20;;;;;;4995599;28;20118;-84
2023/09/15 11:58:47;;;;;;;4.57;1.73;;;28.70;54.10;;;;;;4977765;28;20039;-86
2023/09/15 12:01:14;;;;;;;3.55;1.40;;;28.90;54.20;;;;;;4977645;28;20440;-85
2023/09/15 12:03:40;;;;;;;4.38;1.38;;;29.10;53.80;;;;;;4995034;28;20034;-85
2023/09/15 12:06:05;;;;;;;3.95;1.33;;;29.20;53.40;;;;;;4995108;28;20026;-85
2023/09/15 12:08:32;;;;;;;3.78;1.42;;;29.40;53.10;;;;;;4995103;28;20424;-86
2023/09/15 12:10:57;;;;;;;3.70;1.27;;;29.60;52.80;;;;;;4977175;28;20022;-86
2023/09/15 12:13:23;;;;;;;4.57;1.30;;;29.80;52.60;;;;;;4995008;28;20038;-86
2023/09/15 12:15:48;;;;;;;3.22;1.25;;;29.90;52.30;;;;;;4994935;28;20561;-85
2023/09/15 12:18:14;;;;;;;3.80;1.50;;;30.10;52.00;;;;;;4995057;28;20068;-86
2023/09/15 12:20:40;;;;;;;5.68;1.63;;;30.30;51.70;;;;;;4977350;28;20026;-87
2023/09/15 12:23:12;;;;;;;4.80;1.67;;;30.50;51.40;;;;;;4994303;28;20504;-85
2023/09/15 12:25:38;;;;;;;3.60;1.52;;;30.60;50.90;;;;;;4994758;28;20065;-86
2023/09/15 12:28:05;;;;;;;3.92;1.35;;;30.60;51.00;;;;;;4994154;28;20120;-86
2023/09/15 12:30:30;;;;;;;4.00;1.65;;;30.70;50.80;;;;;;4994482;28;20637;-84
2023/09/15 12:32:56;;;;;;;3.50;1.20;;;30.70;50.50;;;;;;4994471;28;20113;-85
2023/09/15 12:35:22;;;;;;;3.17;1.40;;;30.80;50.30;;;;;;4994785;28;20023;-86
2023/09/15 12:37:48;;;;;;;3.72;1.42;;;31.00;50.10;;;;;;4993289;28;20030;-84
2023/09/15 12:40:14;;;;;;;5.15;1.50;;;31.10;49.80;;;;;;4994091;28;20057;-86
2023/09/15 12:42:41;;;;;;;4.32;1.67;;;31.30;49.70;;;;;;4994274;28;20025;-86